Time;durP1;ratioP1;P1;durP2;ratioP2;P2;SDS_P1;SDS_P2;PMS_P1;PMS_P2;Temp;Humidity;BMP_temperature;BMP_pressure;BME280_temperature;BME280_humidity;BME280_pressure;Samples;Min_cycle;Max_cycle;Signal;HPM_P1;HPM_P2
2023/06/26 00:00:22;;;;;;;;;6.50;5.00;;;;;-143.57;100.00;65101.44;5100308;27;45396;-46
2023/06/26 00:02:47;;;;;;;;;4.00;4.00;;;;;-143.57;100.00;65101.44;5100283;27;45403;-42
2023/06/26 00:05:13;;;;;;;;;7.00;5.50;;;;;-143.57;100.00;65101.44;5100637;27;45211;-45
2023/06/26 00:07:39;;;;;;;;;4.00;4.00;;;;;-143.57;100.00;65101.44;5100562;27;45401;-42
2023/06/26 00:10:05;;;;;;;;;6.25;3.25;;;;;-143.57;100.00;65101.44;5100621;27;45230;-44
2023/06/26 00:12:31;;;;;;;;;6.00;4.00;;;;;-143.57;100.00;65101.44;5100031;27;45391;-46
2023/06/26 00:14:57;;;;;;;;;7.60;4.80;;;;;-143.57;100.00;65101.44;5100641;27;45309;-42
2023/06/26 00:17:23;;;;;;;;;6.00;4.60;;;;;-143.57;100.00;65101.44;5100419;27;45429;-43
2023/06/26 00:19:48;;;;;;;;;6.00;5.75;;;;;-143.57;100.00;65101.44;5100631;27;45446;-47
2023/06/26 00:22:14;;;;;;;;;4.40;4.40;;;;;-143.57;100.00;65101.44;5099950;27;45457;-43
2023/06/26 00:24:40;;;;;;;;;4.25;3.00;;;;;-143.57;100.00;65101.44;5100081;27;45376;-43
2023/06/26 00:27:05;;;;;;;;;4.75;4.00;;;;;-143.57;100.00;65101.44;5099765;27;45403;-44
2023/06/26 00:29:31;;;;;;;;;5.50;4.75;;;;;-143.57;100.00;65101.44;5100300;27;45429;-42
2023/06/26 00:31:56;;;;;;;;;5.25;4.25;;;;;-143.57;100.00;65101.44;5099861;27;46150;-47
2023/06/26 00:34:22;;;;;;;;;6.40;4.00;;;;;-143.57;100.00;65101.44;5100139;27;45374;-44
2023/06/26 00:36:48;;;;;;;;;5.00;3.00;;;;;-143.57;100.00;65101.44;5100160;27;45805;-45
2023/06/26 00:39:13;;;;;;;;;4.25;4.25;;;;;-143.57;100.00;65101.44;5100527;27;45373;-43
2023/06/26 00:41:39;;;;;;;;;4.25;3.75;;;;;-143.57;100.00;65101.44;5100174;27;46270;-45
2023/06/26 00:44:05;;;;;;;;;4.50;4.00;;;;;-143.57;100.00;65101.44;5099831;27;45216;-42
2023/06/26 00:46:31;;;;;;;;;3.00;3.00;;;;;-143.57;100.00;65101.44;5099719;27;45231;-44
2023/06/26 00:48:59;;;;;;;;;8.25;5.75;;;;;-143.57;100.00;65101.44;5099685;27;45423;-45
2023/06/26 00:51:26;;;;;;;;;5.00;5.00;;;;;-143.57;100.00;65101.44;5099207;27;45443;-44
2023/06/26 00:53:51;;;;;;;;;8.00;4.80;;;;;-143.57;100.00;65101.44;5099419;27;45392;-44
2023/06/26 00:56:19;;;;;;;;;4.00;3.50;;;;;-143.57;100.00;65101.44;5099494;27;45476;-43
2023/06/26 00:58:45;;;;;;;;;4.20;4.00;;;;;-143.57;100.00;65101.44;5100010;27;45371;-45
2023/06/26 01:01:15;;;;;;;;;4.00;4.00;;;;;-143.57;100.00;65101.44;5082413;27;47414;-43
2023/06/26 01:03:42;;;;;;;;;2.60;2.60;;;;;-143.57;100.00;65101.44;5100394;27;45452;-43
2023/06/26 01:06:11;;;;;;;;;6.80;5.20;;;;;-143.57;100.00;65101.44;5099632;27;45395;-43
2023/06/26 01:08:38;;;;;;;;;5.80;4.00;;;;;-143.57;100.00;65101.44;5099436;27;45323;-42
2023/06/26 01:11:03;;;;;;;;;6.80;5.80;;;;;-143.57;100.00;65101.44;5098894;27;46119;-43
2023/06/26 01:13:29;;;;;;;;;4.00;4.00;;;;;-143.57;100.00;65101.44;5100512;27;45335;-43
2023/06/26 01:15:56;;;;;;;;;8.20;5.80;;;;;-143.57;100.00;65101.44;5099511;27;45446;-44
2023/06/26 01:18:23;;;;;;;;;6.80;3.80;;;;;-143.57;100.00;65101.44;5099001;27;45407;-44
2023/06/26 01:20:49;;;;;;;;;8.00;5.00;;;;;-143.57;100.00;65101.44;5098701;27;45229;-43
2023/06/26 01:23:23;;;;;;;;;8.00;4.80;;;;;-143.57;100.00;65101.44;5098746;27;45381;-43
2023/06/26 01:26:07;;;;;;;;;5.40;4.00;;;;;-143.57;100.00;65101.44;5097308;27;45203;-45
2023/06/26 01:28:35;;;;;;;;;6.20;4.00;;;;;-143.57;100.00;65101.44;5098857;27;45325;-45
2023/06/26 01:31:04;;;;;;;;;4.60;4.60;;;;;-143.57;100.00;65101.44;5098314;27;46257;-43
2023/06/26 01:33:31;;;;;;;;;4.00;4.00;;;;;-143.57;100.00;65101.44;5098604;27;45363;-43
2023/06/26 01:35:56;;;;;;;;;3.40;3.00;;;;;-143.57;100.00;65101.44;5098795;27;45353;-43
2023/06/26 01:38:25;;;;;;;;;4.25;3.50;;;;;-143.57;100.00;65101.44;5098822;27;45451;-42
2023/06/26 01:40:52;;;;;;;;;4.40;4.40;;;;;-143.57;100.00;65101.44;5097231;27;46355;-42
2023/06/26 01:44:11;;;;;;;;;9.60;6.00;;;;;-143.57;100.00;65101.44;5098729;27;45341;-42
2023/06/26 01:46:47;;;;;;;;;7.00;6.00;;;;;-143.57;100.00;65101.44;5035274;28;45295;-42
2023/06/26 01:49:33;;;;;;;;;6.60;5.60;;;;;-143.57;100.00;65101.44;5034717;28;45641;-42
2023/06/26 01:52:35;;;;;;;;;10.20;6.20;;;;;-143.57;100.00;65101.44;5035048;28;45458;-44
2023/06/26 01:55:23;;;;;;;;;8.20;8.00;;;;;-143.57;100.00;65101.44;5034941;28;45797;-42
2023/06/26 01:57:54;;;;;;;;;6.80;6.80;;;;;-143.57;100.00;65101.44;5035363;28;45500;-43
2023/06/26 02:00:21;;;;;;;;;11.50;9.50;;;;;-143.57;100.00;65101.44;5035242;28;45418;-43
2023/06/26 02:02:46;;;;;;;;;11.20;9.80;;;;;-143.57;100.00;65101.44;5034867;28;46182;-41
2023/06/26 02:05:12;;;;;;;;;13.25;10.50;;;;;-143.57;100.00;65101.44;5034867;28;45335;-42
2023/06/26 02:07:38;;;;;;;;;11.00;9.60;;;;;-143.57;100.00;65101.44;5035221;28;45325;-43
2023/06/26 02:10:03;;;;;;;;;7.50;7.50;;;;;-143.57;100.00;65101.44;5035330;28;45347;-42
2023/06/26 02:12:29;;;;;;;;;7.75;7.00;;;;;-143.57;100.00;65101.44;5034657;28;46898;-43
2023/06/26 02:14:54;;;;;;;;;8.25;7.25;;;;;-143.57;100.00;65101.44;5035015;28;45306;-42
2023/06/26 02:17:20;;;;;;;;;11.00;7.25;;;;;-143.57;100.00;65101.44;5034053;28;45453;-44
2023/06/26 02:19:47;;;;;;;;;8.00;8.00;;;;;-143.57;100.00;65101.44;5035220;28;45389;-43
2023/06/26 02:22:14;;;;;;;;;11.40;9.20;;;;;-143.57;100.00;65101.44;5075505;27;47201;-42
2023/06/26 02:24:40;;;;;;;;;8.00;7.20;;;;;-143.57;100.00;65101.44;5097893;27;45266;-44
2023/06/26 02:27:05;;;;;;;;;9.50;7.25;;;;;-143.57;100.00;65101.44;5097664;27;45423;-42
2023/06/26 02:29:31;;;;;;;;;8.75;8.25;;;;;-143.57;100.00;65101.44;5098156;27;45320;-44
2023/06/26 02:31:56;;;;;;;;;8.00;6.50;;;;;-143.57;100.00;65101.44;5097742;27;45776;-45
2023/06/26 02:34:21;;;;;;;;;6.25;4.50;;;;;-143.57;100.00;65101.44;5097830;27;45445;-42
2023/06/26 02:36:47;;;;;;;;;5.00;3.75;;;;;-143.57;100.00;65101.44;5096819;27;45273;-44
2023/06/26 02:39:13;;;;;;;;;7.25;4.00;;;;;-143.57;100.00;65101.44;5097921;27;45310;-44
2023/06/26 02:41:39;;;;;;;;;2.20;2.20;;;;;-143.57;100.00;65101.44;5097470;27;45736;-43
2023/06/26 02:44:05;;;;;;;;;2.75;2.75;;;;;-143.57;100.00;65101.44;5097744;27;45350;-43
2023/06/26 02:46:30;;;;;;;;;2.75;2.75;;;;;-143.57;100.00;65101.44;5097894;27;45262;-43
2023/06/26 02:48:56;;;;;;;;;3.00;2.00;;;;;-143.57;100.00;65101.44;5097665;27;45469;-42
2023/06/26 02:51:21;;;;;;;;;3.00;2.00;;;;;-143.57;100.00;65101.44;5097632;27;45316;-45
2023/06/26 02:53:47;;;;;;;;;2.00;2.00;;;;;-143.57;100.00;65101.44;5097629;27;45348;-43
2023/06/26 02:56:12;;;;;;;;;5.25;2.00;;;;;-143.57;100.00;65101.44;5079253;27;45483;-43
2023/06/26 02:58:37;;;;;;;;;3.00;2.00;;;;;-143.57;100.00;65101.44;5097661;27;45269;-43
2023/06/26 03:01:02;;;;;;;;;4.00;2.00;;;;;-143.57;100.00;65101.44;5096617;27;45493;-43
2023/06/26 03:03:28;;;;;;;;;2.00;2.00;;;;;-143.57;100.00;65101.44;5097369;27;45284;-43
2023/06/26 03:05:53;;;;;;;;;3.00;1.00;;;;;-143.57;100.00;65101.44;5097578;27;45348;-42
2023/06/26 03:08:19;;;;;;;;;2.00;2.00;;;;;-143.57;100.00;65101.44;5097670;27;45414;-43
2023/06/26 03:10:44;;;;;;;;;1.00;1.00;;;;;-143.57;100.00;65101.44;5097136;27;46024;-48
2023/06/26 03:13:10;;;;;;;;;1.25;1.25;;;;;-143.57;100.00;65101.44;5097167;27;46719;-43
2023/06/26 03:15:35;;;;;;;;;5.25;2.75;;;;;-143.57;100.00;65101.44;5097451;27;45352;-42
2023/06/26 03:18:01;;;;;;;;;3.00;1.00;;;;;-143.57;100.00;65101.44;5097662;27;45439;-43
2023/06/26 03:20:26;;;;;;;;;3.00;2.00;;;;;-143.57;100.00;65101.44;5097636;27;46355;-43
2023/06/26 03:22:51;;;;;;;;;5.25;1.75;;;;;-143.57;100.00;65101.44;5096965;27;45378;-43
2023/06/26 03:25:17;;;;;;;;;2.00;2.00;;;;;-143.57;100.00;65101.44;5097426;27;45524;-43
2023/06/26 03:27:42;;;;;;;;;2.00;2.00;;;;;-143.57;100.00;65101.44;5097228;27;45238;-44
2023/06/26 03:30:08;;;;;;;;;4.75;2.00;;;;;-143.57;100.00;65101.44;5096762;27;55241;-44
2023/06/26 03:32:33;;;;;;;;;2.00;2.00;;;;;-143.57;100.00;65101.44;5097287;27;45225;-44
2023/06/26 03:34:59;;;;;;;;;1.00;1.00;;;;;-143.57;100.00;65101.44;5096620;27;45357;-44
2023/06/26 03:37:24;;;;;;;;;1.00;1.00;;;;;-143.57;100.00;65101.44;5097414;27;45508;-44
2023/06/26 03:39:50;;;;;;;;;3.00;1.00;;;;;-143.57;100.00;65101.44;5096989;27;51658;-45
2023/06/26 03:42:15;;;;;;;;;4.00;2.50;;;;;-143.57;100.00;65101.44;5097109;27;45341;-46
2023/06/26 03:44:40;;;;;;;;;3.75;2.00;;;;;-143.57;100.00;65101.44;5097196;27;45330;-46
2023/06/26 03:47:05;;;;;;;;;2.00;1.75;;;;;-143.57;100.00;65101.44;5096850;27;45289;-46
2023/06/26 03:49:31;;;;;;;;;3.25;3.00;;;;;-143.57;100.00;65101.44;5100048;27;45271;-45
2023/06/26 03:51:56;;;;;;;;;2.75;1.50;;;;;-143.57;100.00;65101.44;5100408;27;45386;-43
2023/06/26 03:54:21;;;;;;;;;2.00;2.00;;;;;-143.57;100.00;65101.44;5099752;27;45296;-44
2023/06/26 03:56:47;;;;;;;;;5.25;3.00;;;;;-143.57;100.00;65101.44;5100357;27;45296;-44
2023/06/26 03:59:12;;;;;;;;;8.75;6.00;;;;;-143.57;100.00;65101.44;5099763;27;50747;-46
2023/06/26 04:01:38;;;;;;;;;2.00;2.00;;;;;-143.57;100.00;65101.44;5100069;27;45320;-45
2023/06/26 04:04:03;;;;;;;;;5.50;4.00;;;;;-143.57;100.00;65101.44;5100312;27;45374;-47
2023/06/26 04:06:31;;;;;;;;;5.50;3.50;;;;;-143.57;100.00;65101.44;5100184;27;45542;-44
2023/06/26 04:08:56;;;;;;;;;3.00;2.80;;;;;-143.57;100.00;65101.44;5100067;27;47224;-46
2023/06/26 04:11:22;;;;;;;;;2.75;1.50;;;;;-143.57;100.00;65101.44;5099738;27;45366;-48
2023/06/26 04:13:47;;;;;;;;;5.50;3.00;;;;;-143.57;100.00;65101.44;5100083;27;45408;-46
2023/06/26 04:16:12;;;;;;;;;3.50;3.50;;;;;-143.57;100.00;65101.44;5100057;27;45277;-45
2023/06/26 04:18:38;;;;;;;;;4.00;4.00;;;;;-143.57;100.00;65101.44;5099553;27;45962;-46
2023/06/26 04:21:07;;;;;;;;;5.00;5.00;;;;;-143.57;100.00;65101.44;5100008;27;45374;-44
2023/06/26 04:23:32;;;;;;;;;4.60;3.00;;;;;-143.57;100.00;65101.44;5099700;27;45559;-44
2023/06/26 04:25:58;;;;;;;;;3.00;3.00;;;;;-143.57;100.00;65101.44;5099947;27;45305;-44
2023/06/26 04:28:24;;;;;;;;;8.75;4.00;;;;;-143.57;100.00;65101.44;5099389;27;47210;-44
2023/06/26 04:30:49;;;;;;;;;4.00;2.25;;;;;-143.57;100.00;65101.44;5099531;27;45432;-47
2023/06/26 04:33:15;;;;;;;;;4.25;4.25;;;;;-143.57;100.00;65101.44;5100000;27;45398;-44
2023/06/26 04:35:40;;;;;;;;;4.50;3.00;;;;;-143.57;100.00;65101.44;5099877;27;45419;-48
2023/06/26 04:38:06;;;;;;;;;5.00;4.00;;;;;-143.57;100.00;65101.44;5099508;27;46085;-43
2023/06/26 04:40:31;;;;;;;;;3.50;3.50;;;;;-143.57;100.00;65101.44;5099423;27;50299;-46
2023/06/26 04:42:57;;;;;;;;;2.75;2.00;;;;;-143.57;100.00;65101.44;5098523;27;45367;-48
2023/06/26 04:45:22;;;;;;;;;5.75;3.75;;;;;-143.57;100.00;65101.44;5099837;27;45371;-43
2023/06/26 04:47:47;;;;;;;;;6.00;5.00;;;;;-143.57;100.00;65101.44;5099086;27;53380;-43
2023/06/26 04:50:13;;;;;;;;;4.25;3.00;;;;;-143.57;100.00;65101.44;5099315;27;45329;-42
2023/06/26 04:52:38;;;;;;;;;3.25;3.00;;;;;-143.57;100.00;65101.44;5099439;27;45366;-46
2023/06/26 04:55:04;;;;;;;;;4.00;3.00;;;;;-143.57;100.00;65101.44;5099277;27;45391;-43
2023/06/26 04:57:29;;;;;;;;;4.00;4.00;;;;;-143.57;100.00;65101.44;5099027;27;47387;-41
2023/06/26 04:59:54;;;;;;;;;8.75;5.25;;;;;-143.57;100.00;65101.44;5062673;27;45348;-45
2023/06/26 05:02:19;;;;;;;;;6.25;4.00;;;;;-143.57;100.00;65101.44;5099450;27;45288;-43
2023/06/26 05:04:46;;;;;;;;;3.75;3.25;;;;;-143.57;100.00;65101.44;5099381;27;45265;-43
2023/06/26 05:07:12;;;;;;;;;5.25;2.75;;;;;-143.57;100.00;65101.44;5080517;27;47349;-42
2023/06/26 05:09:37;;;;;;;;;5.00;4.00;;;;;-143.57;100.00;65101.44;5080643;27;45244;-43
2023/06/26 05:12:03;;;;;;;;;5.50;3.25;;;;;-143.57;100.00;65101.44;5099010;27;45245;-41
2023/06/26 05:14:28;;;;;;;;;4.25;3.50;;;;;-143.57;100.00;65101.44;5099288;27;45301;-45
2023/06/26 05:16:53;;;;;;;;;3.00;3.00;;;;;-143.57;100.00;65101.44;5098841;27;46021;-44
2023/06/26 05:19:19;;;;;;;;;5.25;4.75;;;;;-143.57;100.00;65101.44;5098789;27;47812;-44
2023/06/26 05:21:45;;;;;;;;;4.25;3.75;;;;;-143.57;100.00;65101.44;5098984;27;45347;-44
2023/06/26 05:24:13;;;;;;;;;3.00;2.75;;;;;-143.57;100.00;65101.44;5099133;27;45348;-47
2023/06/26 05:26:38;;;;;;;;;5.20;3.00;;;;;-143.57;100.00;65101.44;5098460;27;45369;-44
2023/06/26 05:29:04;;;;;;;;;7.75;5.25;;;;;-143.57;100.00;65101.44;5098720;27;45227;-42
2023/06/26 05:31:33;;;;;;;;;3.75;3.75;;;;;-143.57;100.00;65101.44;5098787;27;45295;-43
2023/06/26 05:34:02;;;;;;;;;2.25;2.25;;;;;-143.57;100.00;65101.44;5098863;27;45383;-43
2023/06/26 05:36:29;;;;;;;;;6.00;3.00;;;;;-143.57;100.00;65101.44;5098514;27;47337;-42
2023/06/26 05:38:56;;;;;;;;;6.00;4.20;;;;;-143.57;100.00;65101.44;5098300;27;45511;-45
2023/06/26 05:41:22;;;;;;;;;1.50;0.00;;;;;-143.57;100.00;65101.44;5098645;27;45279;-44
2023/06/26 05:43:47;;;;;;;;;5.50;3.75;;;;;-143.57;100.00;65101.44;5098601;27;45378;-50
2023/06/26 05:46:13;;;;;;;;;3.75;3.75;;;;;-143.57;100.00;65101.44;5098538;27;46246;-50
2023/06/26 05:48:39;;;;;;;;;5.50;5.00;;;;;-143.57;100.00;65101.44;5098059;27;45296;-49
2023/06/26 05:51:05;;;;;;;;;5.00;4.40;;;;;-143.57;100.00;65101.44;5097487;27;45430;-45
2023/06/26 05:53:30;;;;;;;;;5.50;4.00;;;;;-143.57;100.00;65101.44;5097889;27;45552;-54
2023/06/26 05:55:56;;;;;;;;;5.25;5.00;;;;;-143.57;100.00;65101.44;5098457;27;46311;-55
2023/06/26 05:58:25;;;;;;;;;4.75;3.75;;;;;-143.57;100.00;65101.44;5098148;27;45258;-54
2023/06/26 06:00:52;;;;;;;;;6.40;3.20;;;;;-143.57;100.00;65101.44;5098348;27;45306;-45
2023/06/26 06:03:17;;;;;;;;;5.75;5.75;;;;;-143.57;100.00;65101.44;5098508;27;45273;-47
2023/06/26 06:05:43;;;;;;;;;7.50;6.25;;;;;-143.57;100.00;65101.44;5098164;27;45960;-45
2023/06/26 06:08:08;;;;;;;;;5.75;5.50;;;;;-143.57;100.00;65101.44;5098220;27;45323;-51
2023/06/26 06:10:33;;;;;;;;;7.00;7.00;;;;;-143.57;100.00;65101.44;5098176;27;45273;-48
2023/06/26 06:12:59;;;;;;;;;6.75;5.25;;;;;-143.57;100.00;65101.44;5098338;27;45347;-52
2023/06/26 06:15:24;;;;;;;;;9.00;5.75;;;;;-143.57;100.00;65101.44;5098050;27;46021;-45
2023/06/26 06:17:49;;;;;;;;;5.00;5.00;;;;;-143.57;100.00;65101.44;5098105;27;45418;-46
2023/06/26 06:20:15;;;;;;;;;7.75;6.25;;;;;-143.57;100.00;65101.44;5098165;27;45518;-45
2023/06/26 06:22:40;;;;;;;;;9.00;7.00;;;;;-143.57;100.00;65101.44;5098240;27;45351;-43
2023/06/26 06:25:06;;;;;;;;;7.00;7.00;;;;;-143.57;100.00;65101.44;5097922;27;45948;-43
2023/06/26 06:27:31;;;;;;;;;6.25;6.00;;;;;-143.57;100.00;65101.44;5097323;27;45466;-45
2023/06/26 06:29:56;;;;;;;;;11.75;9.25;;;;;-143.57;100.00;65101.44;5079725;27;45336;-45
2023/06/26 06:32:22;;;;;;;;;6.50;6.50;;;;;-143.57;100.00;65101.44;5097627;27;45348;-45
2023/06/26 06:34:47;;;;;;;;;8.25;5.00;;;;;-143.57;100.00;65101.44;5097646;27;45449;-46
2023/06/26 06:37:12;;;;;;;;;11.00;6.50;;;;;-143.57;100.00;65101.44;5097806;27;45426;-44
2023/06/26 06:39:38;;;;;;;;;7.00;7.00;;;;;-143.57;100.00;65101.44;5097701;27;45336;-43
2023/06/26 06:42:03;;;;;;;;;5.00;5.00;;;;;-143.57;100.00;65101.44;5098128;27;45380;-47
2023/06/26 06:44:30;;;;;;;;;10.50;7.75;;;;;-143.57;100.00;65101.44;5097398;27;46691;-43
2023/06/26 06:46:56;;;;;;;;;9.40;6.40;;;;;-143.57;100.00;65101.44;5097247;27;45254;-43
2023/06/26 06:49:21;;;;;;;;;7.50;5.75;;;;;-143.57;100.00;65101.44;5097719;27;45341;-43
2023/06/26 06:51:46;;;;;;;;;5.75;5.75;;;;;-143.57;100.00;65101.44;5097820;27;45442;-42
2023/06/26 06:54:12;;;;;;;;;4.50;4.50;;;;;-143.57;100.00;65101.44;5097615;27;46078;-45
2023/06/26 06:56:37;;;;;;;;;9.00;6.00;;;;;-143.57;100.00;65101.44;5097431;27;45296;-45
2023/06/26 06:59:03;;;;;;;;;5.75;5.00;;;;;-143.57;100.00;65101.44;5097340;27;45246;-43
2023/06/26 07:01:28;;;;;;;;;4.25;4.25;;;;;-143.57;100.00;65101.44;5097941;27;45352;-42
2023/06/26 07:03:54;;;;;;;;;4.75;4.50;;;;;-143.57;100.00;65101.44;5097385;27;47096;-41
2023/06/26 07:06:19;;;;;;;;;6.00;2.75;;;;;-143.57;100.00;65101.44;5097832;27;45306;-42
2023/06/26 07:08:44;;;;;;;;;3.75;3.75;;;;;-143.57;100.00;65101.44;5097509;27;45462;-42
2023/06/26 07:11:10;;;;;;;;;7.00;5.00;;;;;-143.57;100.00;65101.44;5097738;27;45339;-41
2023/06/26 07:13:35;;;;;;;;;6.25;5.25;;;;;-143.57;100.00;65101.44;5097324;27;46753;-41
2023/06/26 07:16:00;;;;;;;;;8.75;4.00;;;;;-143.57;100.00;65101.44;5078820;27;45457;-41
2023/06/26 07:18:26;;;;;;;;;10.25;5.75;;;;;-143.57;100.00;65101.44;5097178;27;45244;-41
2023/06/26 07:20:51;;;;;;;;;5.75;5.75;;;;;-143.57;100.00;65101.44;5079258;27;45321;-42
2023/06/26 07:23:16;;;;;;;;;4.25;3.75;;;;;-143.57;100.00;65101.44;5098421;27;52808;-42
2023/06/26 07:25:42;;;;;;;;;3.00;3.00;;;;;-143.57;100.00;65101.44;5100961;27;45410;-42
2023/06/26 07:28:11;;;;;;;;;3.00;3.00;;;;;-143.57;100.00;65101.44;5100816;27;45404;-41
2023/06/26 07:30:37;;;;;;;;;9.20;6.00;;;;;-143.57;100.00;65101.44;5101796;27;45412;-41
2023/06/26 07:33:02;;;;;;;;;6.75;4.00;;;;;-143.57;100.00;65101.44;5103317;27;45236;-43
2023/06/26 07:35:27;;;;;;;;;4.75;2.75;;;;;-143.57;100.00;65101.44;5084274;27;45412;-43
2023/06/26 07:37:53;;;;;;;;;4.25;4.25;;;;;-143.57;100.00;65101.44;5102351;27;45411;-42
2023/06/26 07:40:18;;;;;;;;;4.25;4.25;;;;;-143.57;100.00;65101.44;5101650;27;45253;-43
2023/06/26 07:42:44;;;;;;;;;4.00;4.00;;;;;-143.57;100.00;65101.44;5100711;27;46737;-42
2023/06/26 07:45:11;;;;;;;;;5.00;5.00;;;;;-143.57;100.00;65101.44;5100389;27;45346;-40
2023/06/26 07:47:38;;;;;;;;;4.80;4.40;;;;;-143.57;100.00;65101.44;5100567;27;45257;-42
2023/06/26 07:50:04;;;;;;;;;4.20;4.00;;;;;-143.57;100.00;65101.44;5101034;27;45433;-43
2023/06/26 07:52:30;;;;;;;;;5.25;5.25;;;;;-143.57;100.00;65101.44;5100406;27;46361;-41
2023/06/26 07:54:56;;;;;;;;;6.75;4.50;;;;;-143.57;100.00;65101.44;5100358;27;45281;-42
2023/06/26 07:57:21;;;;;;;;;3.00;1.50;;;;;-143.57;100.00;65101.44;5100397;27;45255;-42
2023/06/26 07:59:46;;;;;;;;;5.00;5.00;;;;;-143.57;100.00;65101.44;5100226;27;45424;-43
2023/06/26 08:02:12;;;;;;;;;4.75;3.00;;;;;-143.57;100.00;65101.44;5100419;27;46100;-43
2023/06/26 08:04:37;;;;;;;;;5.00;5.00;;;;;-143.57;100.00;65101.44;5100303;27;45296;-42
2023/06/26 08:07:06;;;;;;;;;6.00;3.00;;;;;-143.57;100.00;65101.44;5100080;27;45396;-43
2023/06/26 08:09:32;;;;;;;;;4.40;4.00;;;;;-143.57;100.00;65101.44;5100362;27;45470;-43
2023/06/26 08:11:57;;;;;;;;;4.00;3.20;;;;;-143.57;100.00;65101.44;5099997;27;45455;-42
2023/06/26 08:14:23;;;;;;;;;5.00;5.00;;;;;-143.57;100.00;65101.44;5099854;27;45472;-43
2023/06/26 08:16:49;;;;;;;;;6.00;5.25;;;;;-143.57;100.00;65101.44;5100278;27;45257;-43
2023/06/26 08:19:16;;;;;;;;;7.00;4.00;;;;;-143.57;100.00;65101.44;5100505;27;45303;-44
2023/06/26 08:21:45;;;;;;;;;4.20;2.40;;;;;-143.57;100.00;65101.44;5100856;27;47305;-43
2023/06/26 08:24:10;;;;;;;;;3.20;2.40;;;;;-143.57;100.00;65101.44;5081700;27;45856;-42
2023/06/26 08:26:37;;;;;;;;;4.75;3.00;;;;;-143.57;100.00;65101.44;5099779;27;45339;-42
2023/06/26 08:29:07;;;;;;;;;3.00;3.00;;;;;-143.57;100.00;65101.44;5099965;27;45401;-46
2023/06/26 08:31:36;;;;;;;;;5.00;3.00;;;;;-143.57;100.00;65101.44;5099670;27;46110;-43
2023/06/26 08:34:03;;;;;;;;;4.00;3.00;;;;;-143.57;100.00;65101.44;5099165;27;45348;-43
2023/06/26 08:36:28;;;;;;;;;6.80;2.60;;;;;-143.57;100.00;65101.44;5099437;27;45481;-44
2023/06/26 08:38:54;;;;;;;;;2.00;2.00;;;;;-143.57;100.00;65101.44;5099912;27;45380;-42
2023/06/26 08:41:19;;;;;;;;;2.00;1.20;;;;;-143.57;100.00;65101.44;5099687;27;46641;-43
2023/06/26 08:43:45;;;;;;;;;2.50;2.50;;;;;-143.57;100.00;65101.44;5098450;27;45602;-43
2023/06/26 08:46:11;;;;;;;;;2.50;1.00;;;;;-143.57;100.00;65101.44;5100001;27;45212;-43
2023/06/26 08:48:37;;;;;;;;;2.80;2.80;;;;;-143.57;100.00;65101.44;5100064;27;45269;-45
2023/06/26 08:51:11;;;;;;;;;2.75;2.75;;;;;-143.57;100.00;65101.44;5099444;27;46094;-43
2023/06/26 08:53:49;;;;;;;;;4.00;2.60;;;;;-143.57;100.00;65101.44;5098861;27;45267;-42
2023/06/26 08:56:17;;;;;;;;;2.60;1.40;;;;;-143.57;100.00;65101.44;5099785;27;45410;-42
2023/06/26 08:58:42;;;;;;;;;3.20;2.80;;;;;-143.57;100.00;65101.44;5099629;27;45509;-42
2023/06/26 09:01:08;;;;;;;;;1.50;1.50;;;;;-143.57;100.00;65101.44;5099356;27;46055;-43
2023/06/26 09:03:34;;;;;;;;;3.50;2.00;;;;;-143.57;100.00;65101.44;5099248;27;45481;-42
2023/06/26 09:05:59;;;;;;;;;2.00;2.00;;;;;-143.57;100.00;65101.44;5099483;27;45430;-43
2023/06/26 09:08:25;;;;;;;;;3.00;3.00;;;;;-143.57;100.00;65101.44;5099523;27;45186;-43
2023/06/26 09:10:51;;;;;;;;;5.00;2.00;;;;;-143.57;100.00;65101.44;5099152;27;46246;-43
2023/06/26 09:13:18;;;;;;;;;3.60;2.40;;;;;-143.57;100.00;65101.44;5099295;27;45380;-43
2023/06/26 09:15:44;;;;;;;;;2.20;1.80;;;;;-143.57;100.00;65101.44;5099157;27;45358;-43
2023/06/26 09:18:10;;;;;;;;;2.00;1.40;;;;;-143.57;100.00;65101.44;5099428;27;45472;-44
2023/06/26 09:20:36;;;;;;;;;4.00;3.00;;;;;-143.57;100.00;65101.44;5099093;27;45311;-42
2023/06/26 09:23:02;;;;;;;;;1.00;1.00;;;;;-143.57;100.00;65101.44;5099037;27;45385;-41
2023/06/26 09:25:28;;;;;;;;;2.25;2.25;;;;;-143.57;100.00;65101.44;5097664;27;45316;-42
2023/06/26 09:27:54;;;;;;;;;1.40;1.20;;;;;-143.57;100.00;65101.44;5099119;27;45333;-44
2023/06/26 09:30:19;;;;;;;;;3.20;2.00;;;;;-143.57;100.00;65101.44;5098812;27;46175;-42
2023/06/26 09:32:45;;;;;;;;;4.25;1.75;;;;;-143.57;100.00;65101.44;5099140;27;45385;-43
2023/06/26 09:35:11;;;;;;;;;2.40;2.20;;;;;-143.57;100.00;65101.44;5098813;27;45481;-43
2023/06/26 09:37:37;;;;;;;;;4.00;2.00;;;;;-143.57;100.00;65101.44;5099220;27;45369;-42
2023/06/26 09:40:04;;;;;;;;;3.40;3.20;;;;;-143.57;100.00;65101.44;5098692;27;45392;-46
2023/06/26 09:42:30;;;;;;;;;4.00;3.60;;;;;-143.57;100.00;65101.44;5098727;27;45427;-44
2023/06/26 09:44:55;;;;;;;;;3.50;3.00;;;;;-143.57;100.00;65101.44;5098729;27;45354;-44
2023/06/26 09:47:21;;;;;;;;;3.00;2.75;;;;;-143.57;100.00;65101.44;5098410;27;45386;-42
2023/06/26 09:49:47;;;;;;;;;4.60;1.80;;;;;-143.57;100.00;65101.44;5098422;27;46938;-44
2023/06/26 09:52:17;;;;;;;;;4.25;2.00;;;;;-143.57;100.00;65101.44;5098540;27;45423;-44
2023/06/26 09:54:46;;;;;;;;;3.60;2.80;;;;;-143.57;100.00;65101.44;5098621;27;45229;-42
2023/06/26 09:57:18;;;;;;;;;2.00;1.40;;;;;-143.57;100.00;65101.44;5098803;27;45281;-44
2023/06/26 09:59:45;;;;;;;;;4.00;4.00;;;;;-143.57;100.00;65101.44;5098001;27;47608;-41
2023/06/26 10:02:11;;;;;;;;;1.60;1.60;;;;;-143.57;100.00;65101.44;5080016;27;45331;-43
2023/06/26 10:04:37;;;;;;;;;5.80;2.60;;;;;-143.57;100.00;65101.44;5098581;27;45402;-46
2023/06/26 10:07:06;;;;;;;;;3.60;2.00;;;;;-143.57;100.00;65101.44;5098759;27;45518;-43
2023/06/26 10:09:32;;;;;;;;;2.00;2.00;;;;;-143.57;100.00;65101.44;5098280;27;45634;-42
2023/06/26 10:12:07;;;;;;;;;2.00;2.00;;;;;-143.57;100.00;65101.44;5098612;27;45271;-44
2023/06/26 10:14:39;;;;;;;;;1.80;1.80;;;;;-143.57;100.00;65101.44;5079950;27;45345;-43
2023/06/26 10:17:09;;;;;;;;;2.40;2.40;;;;;-143.57;100.00;65101.44;5098481;27;45220;-42
2023/06/26 10:19:35;;;;;;;;;1.80;1.80;;;;;-143.57;100.00;65101.44;5098150;27;45332;-42
2023/06/26 10:22:02;;;;;;;;;4.00;4.00;;;;;-143.57;100.00;65101.44;5097919;27;45404;-43
2023/06/26 10:24:31;;;;;;;;;8.20;7.60;;;;;-143.57;100.00;65101.44;5098120;27;45442;-42
2023/06/26 10:27:03;;;;;;;;;2.60;1.80;;;;;-143.57;100.00;65101.44;5098339;27;45431;-42
2023/06/26 10:29:32;;;;;;;;;1.60;1.60;;;;;-143.57;100.00;65101.44;5097895;27;46006;-44
2023/06/26 10:32:00;;;;;;;;;3.60;2.00;;;;;-143.57;100.00;65101.44;5097828;27;45421;-42
2023/06/26 10:34:25;;;;;;;;;3.00;3.00;;;;;-143.57;100.00;65101.44;5098200;27;45481;-44
2023/06/26 10:37:01;;;;;;;;;2.75;1.75;;;;;-143.57;100.00;65101.44;5079994;27;45383;-43
2023/06/26 10:39:27;;;;;;;;;2.20;2.20;;;;;-143.57;100.00;65101.44;5097821;27;46080;-42
2023/06/26 10:41:55;;;;;;;;;0.25;0.25;;;;;-143.57;100.00;65101.44;5098028;27;45494;-41
2023/06/26 10:44:21;;;;;;;;;1.40;1.40;;;;;-143.57;100.00;65101.44;5097978;27;45202;-43
2023/06/26 10:46:52;;;;;;;;;2.25;2.00;;;;;-143.57;100.00;65101.44;5098089;27;45286;-44
2023/06/26 10:49:18;;;;;;;;;2.20;2.20;;;;;-143.57;100.00;65101.44;5079135;27;47563;-44
2023/06/26 10:51:49;;;;;;;;;1.00;1.00;;;;;-143.57;100.00;65101.44;5097878;27;45724;-46
2023/06/26 10:54:19;;;;;;;;;2.40;2.40;;;;;-143.57;100.00;65101.44;5097768;27;45335;-42
2023/06/26 10:56:56;;;;;;;;;2.20;1.80;;;;;-143.57;100.00;65101.44;5079581;27;45507;-43
2023/06/26 10:59:25;;;;;;;;;4.00;2.20;;;;;-143.57;100.00;65101.44;5096741;27;47231;-43
2023/06/26 11:01:59;;;;;;;;;5.80;4.00;;;;;-143.57;100.00;65101.44;5078876;27;45886;-43
2023/06/26 11:04:44;;;;;;;;;3.40;2.00;;;;;-143.57;100.00;65101.44;5096945;27;45394;-44
2023/06/26 11:07:18;;;;;;;;;2.60;2.00;;;;;-143.57;100.00;65101.44;5097764;27;45469;-43